This is the latest recevied weather packets stored in our database for station/object KQ4UWH. If no packets are shown the sender has not sent any weather packets the latest 10 day(s).
| Time | Temp. | Humidity | Pressure | Rain* | Wind** | Luminosity | Snow |
|---|---|---|---|---|---|---|---|
| 1777494362 | 27.78° C | 62% | 1239.7 hPa | 0 mm | - | 520 W/m² | - |
| 1777494058 | 27.22° C | 63% | 1239.7 hPa | 0 mm | - | 538 W/m² | - |
| 1777493756 | 27.22° C | 63% | 1239.7 hPa | 0 mm | - | 138 W/m² | - |
| 1777493454 | 26.67° C | 62% | 1239.7 hPa | 0 mm | - | 565 W/m² | - |
| 1777493149 | 26.67° C | 64% | 1239.7 hPa | 0 mm | - | 168 W/m² | - |
| 1777492846 | 27.22° C | 62% | 1239.7 hPa | 0 mm | - | 172 W/m² | - |
| 1777492543 | 26.67° C | 65% | 1239.7 hPa | 0 mm | - | 688 W/m² | - |
| 1777492239 | 26.11° C | 66% | 1239.7 hPa | 0 mm | - | 255 W/m² | - |
| 1777491937 | 26.11° C | 65% | 1239.7 hPa | 0 mm | - | 375 W/m² | - |
| 1777491632 | 26.11° C | 65% | 1239.7 hPa | 0 mm | - | 218 W/m² | - |
| 1777491330 | 26.67° C | 64% | 1239.7 hPa | 0 mm | - | 194 W/m² | - |
| 1777491027 | 26.67° C | 63% | 1239.7 hPa | 0 mm | - | 187 W/m² | - |
| 1777490722 | 26.67° C | 62% | 1239.7 hPa | 0 mm | - | 669 W/m² | - |
| 1777490420 | 26.11° C | 66% | 1239.7 hPa | 0 mm | - | 702 W/m² | - |
| 1777490116 | 26.11° C | 66% | 1239.7 hPa | 0 mm | - | 219 W/m² | - |
| 1777489814 | 26.11° C | 63% | 1239.7 hPa | 0 mm | - | 244 W/m² | - |
| 1777489511 | 25.56° C | 65% | 1239.7 hPa | 0 mm | - | 244 W/m² | - |
| 1777489207 | 25.56° C | 66% | 1239.7 hPa | 0 mm | - | 225 W/m² | - |
| 1777488904 | 26.11° C | 64% | 1239.7 hPa | 0 mm | - | 199 W/m² | - |
| 1777488601 | 26.11° C | 64% | 1239.7 hPa | 0 mm | - | 223 W/m² | - |
| 1777488299 | 26.11° C | 63% | 1239.7 hPa | 0 mm | - | 265 W/m² | - |
| 1777487997 | 26.11° C | 64% | 1239.7 hPa | 0 mm | - | 324 W/m² | - |
| 1777487694 | 26.11° C | 64% | 1239.7 hPa | 0 mm | - | 231 W/m² | - |
| 1777487391 | 26.11° C | 63% | 1239.7 hPa | 0 mm | - | 180 W/m² | - |
| 1777487089 | 26.11° C | 62% | 1239.7 hPa | 0 mm | - | 472 W/m² | - |
* Rain latest hour (hover to see other rain measurements)
** Current wind speed in m/s (hover to see current wind gust speed)